createdAt,value
2022-11-05T00:00:37.631Z,10.03
2022-11-05T00:03:23.462Z,9.93
2022-11-05T00:06:12.310Z,9.93
2022-11-05T00:08:59.175Z,9.90
2022-11-05T00:11:46.234Z,9.89
2022-11-05T00:14:32.805Z,9.84
2022-11-05T00:16:59.778Z,9.78
2022-11-05T00:19:26.694Z,9.79
2022-11-05T00:22:12.463Z,9.75
2022-11-05T00:24:58.036Z,9.69
2022-11-05T00:27:24.966Z,9.73
2022-11-05T00:29:52.084Z,9.70
2022-11-05T00:32:18.997Z,9.64
2022-11-05T00:34:45.993Z,9.53
2022-11-05T00:37:12.920Z,9.50
2022-11-05T00:39:39.856Z,9.50
2022-11-05T00:42:25.360Z,9.52
2022-11-05T00:45:01.264Z,9.49
2022-11-05T00:47:47.903Z,9.55
2022-11-05T00:50:14.982Z,9.54
2022-11-05T00:52:57.554Z,9.53
2022-11-05T00:55:35.003Z,9.53
2022-11-05T00:58:04.944Z,9.51
2022-11-05T01:00:34.678Z,9.42
2022-11-05T01:03:05.626Z,9.49
2022-11-05T01:05:34.677Z,9.49
2022-11-05T01:08:01.802Z,9.47
2022-11-05T01:10:29.514Z,9.44
2022-11-05T01:12:57.282Z,9.43
2022-11-05T01:15:24.297Z,9.43
2022-11-05T01:17:52.494Z,9.38
2022-11-05T01:20:19.641Z,9.32
2022-11-05T01:22:46.662Z,9.39
2022-11-05T01:25:13.721Z,9.35
2022-11-05T01:27:40.726Z,9.40
2022-11-05T01:30:09.093Z,9.37
2022-11-05T01:32:37.232Z,9.36
2022-11-05T01:35:10.926Z,9.22
2022-11-05T01:37:37.891Z,9.28
2022-11-05T01:40:06.813Z,9.21
2022-11-05T01:42:34.554Z,9.14
2022-11-05T01:45:09.873Z,9.11
2022-11-05T01:47:51.610Z,9.09
2022-11-05T01:50:35.256Z,9.08
2022-11-05T01:53:41.684Z,9.18
2022-11-05T01:56:21.285Z,9.22
2022-11-05T01:58:53.948Z,9.14
2022-11-05T02:01:21.331Z,9.20
2022-11-05T02:03:52.033Z,9.19
2022-11-05T02:06:20.953Z,9.16
2022-11-05T02:09:08.414Z,9.12
2022-11-05T02:11:35.548Z,9.11
2022-11-05T02:14:02.560Z,9.16
2022-11-05T02:17:00.989Z,9.07
2022-11-05T02:20:10.324Z,9.10
2022-11-05T02:23:11.279Z,9.07
2022-11-05T02:26:17.817Z,9.14
2022-11-05T02:29:18.815Z,9.05
2022-11-05T02:32:06.313Z,9.01
2022-11-05T02:34:55.665Z,8.92
2022-11-05T02:37:44.820Z,8.89
2022-11-05T02:40:23.576Z,8.93
2022-11-05T02:43:16.055Z,8.88
2022-11-05T02:45:51.731Z,8.89
2022-11-05T02:49:17.883Z,8.90
2022-11-05T02:51:59.021Z,8.88
2022-11-05T02:54:44.478Z,8.93
2022-11-05T02:57:11.576Z,8.88
2022-11-05T02:59:38.496Z,8.83
2022-11-05T03:02:06.405Z,8.80
2022-11-05T03:04:33.689Z,8.81
2022-11-05T03:07:29.544Z,8.78
2022-11-05T03:10:41.877Z,8.79
2022-11-05T03:13:22.532Z,8.83
2022-11-05T03:16:01.531Z,8.76
2022-11-05T03:19:08.696Z,8.77
2022-11-05T03:21:48.269Z,8.75
2022-11-05T03:24:24.815Z,8.80
2022-11-05T03:27:00.516Z,8.71
2022-11-05T03:30:04.038Z,8.72
2022-11-05T03:32:35.802Z,8.75
2022-11-05T03:35:27.796Z,8.66
2022-11-05T03:38:08.023Z,8.74
2022-11-05T03:40:37.767Z,8.66
2022-11-05T03:43:08.808Z,8.76
2022-11-05T03:45:43.973Z,8.74
2022-11-05T03:48:14.576Z,8.64
2022-11-05T03:50:53.970Z,8.70
2022-11-05T03:53:30.102Z,8.71
2022-11-05T03:56:26.953Z,8.70
2022-11-05T03:58:58.948Z,8.71
2022-11-05T04:01:26.889Z,8.65
2022-11-05T04:03:53.936Z,8.62
2022-11-05T04:06:39.356Z,8.60
2022-11-05T04:09:24.921Z,8.68
2022-11-05T04:12:10.574Z,8.63
2022-11-05T04:14:39.448Z,8.63
2022-11-05T04:17:06.430Z,8.64
2022-11-05T04:19:57.660Z,8.63
2022-11-05T04:22:47.044Z,8.61
2022-11-05T04:25:16.260Z,8.61
2022-11-05T04:27:43.652Z,8.63
2022-11-05T04:30:21.580Z,8.63
2022-11-05T04:33:15.304Z,8.64
2022-11-05T04:35:48.162Z,8.62
2022-11-05T04:38:20.122Z,8.58
2022-11-05T04:40:48.195Z,8.60
2022-11-05T04:43:19.338Z,8.63
2022-11-05T04:45:46.721Z,8.60
2022-11-05T04:48:13.695Z,8.50
2022-11-05T04:50:40.636Z,8.60
2022-11-05T04:53:07.704Z,8.52
2022-11-05T04:55:34.837Z,8.49
2022-11-05T04:58:01.789Z,8.48
2022-11-05T05:00:28.783Z,8.51
2022-11-05T05:02:55.889Z,8.50
2022-11-05T05:05:23.126Z,8.59
2022-11-05T05:07:50.142Z,8.50
2022-11-05T05:10:17.509Z,8.53
2022-11-05T05:12:44.561Z,8.47
2022-11-05T05:15:12.623Z,8.49
2022-11-05T05:17:39.561Z,8.48
2022-11-05T05:20:25.746Z,8.44
2022-11-05T05:22:54.116Z,8.41
2022-11-05T05:25:21.812Z,8.40
2022-11-05T05:27:48.750Z,8.31
2022-11-05T05:30:15.871Z,8.34
2022-11-05T05:32:42.838Z,8.32
2022-11-05T05:35:10.330Z,8.39
2022-11-05T05:37:37.265Z,8.42
2022-11-05T05:40:04.608Z,8.46
2022-11-05T05:42:31.745Z,8.41
2022-11-05T05:44:58.784Z,8.40
2022-11-05T05:47:25.918Z,8.30
2022-11-05T05:49:52.993Z,8.28
2022-11-05T05:52:20.053Z,8.21
2022-11-05T05:54:47.170Z,8.20
2022-11-05T05:57:14.184Z,8.19
2022-11-05T05:59:41.127Z,8.24
2022-11-05T06:02:08.237Z,8.15
2022-11-05T06:04:35.226Z,8.13
2022-11-05T06:07:02.160Z,8.09
2022-11-05T06:09:29.272Z,8.06
2022-11-05T06:11:56.225Z,8.13
2022-11-05T06:14:23.160Z,8.08
2022-11-05T06:16:50.112Z,8.06
2022-11-05T06:19:17.120Z,8.03
2022-11-05T06:21:44.171Z,8.02
2022-11-05T06:24:11.325Z,8.07
2022-11-05T06:26:42.763Z,8.06
2022-11-05T06:29:13.169Z,8.00
2022-11-05T06:31:40.610Z,7.98
2022-11-05T06:34:07.742Z,7.97
2022-11-05T06:36:34.764Z,8.02
2022-11-05T06:39:01.764Z,7.97
2022-11-05T06:41:28.739Z,7.93
2022-11-05T06:43:55.794Z,7.99
2022-11-05T06:46:22.796Z,7.95
2022-11-05T06:48:51.003Z,7.99
2022-11-05T06:51:18.068Z,7.97
2022-11-05T06:53:45.062Z,7.94
2022-11-05T06:56:12.266Z,7.94
2022-11-05T06:58:39.277Z,8.01
2022-11-05T07:01:09.892Z,8.06
2022-11-05T07:03:38.261Z,7.96
2022-11-05T07:06:07.256Z,7.94
2022-11-05T07:08:35.994Z,8.01
2022-11-05T07:11:03.495Z,8.06
2022-11-05T07:13:30.480Z,8.11
2022-11-05T07:15:57.835Z,8.14
2022-11-05T07:18:25.016Z,8.12
2022-11-05T07:20:51.968Z,8.16
2022-11-05T07:23:19.066Z,8.16
2022-11-05T07:25:46.121Z,8.18
2022-11-05T07:28:14.479Z,8.15
2022-11-05T07:30:41.673Z,8.18
2022-11-05T07:33:09.563Z,8.24
2022-11-05T07:35:36.824Z,8.21
2022-11-05T07:38:03.882Z,8.24
2022-11-05T07:40:31.228Z,8.35
2022-11-05T07:43:00.712Z,8.37
2022-11-05T07:45:30.050Z,8.45
2022-11-05T07:48:00.703Z,8.43
2022-11-05T07:50:34.209Z,8.47
2022-11-05T07:53:10.478Z,8.46
2022-11-05T07:55:40.462Z,8.49
2022-11-05T07:58:07.429Z,8.56
2022-11-05T08:00:34.513Z,8.55
2022-11-05T08:03:14.142Z,8.63
2022-11-05T08:05:44.667Z,8.64
2022-11-05T08:08:14.742Z,8.66
2022-11-05T08:10:42.145Z,8.73
2022-11-05T08:13:10.141Z,8.79
2022-11-05T08:15:37.771Z,8.85
2022-11-05T08:18:08.604Z,8.89
2022-11-05T08:20:36.179Z,8.95
2022-11-05T08:23:03.192Z,9.01
2022-11-05T08:25:30.765Z,9.06
2022-11-05T08:28:11.421Z,9.07
2022-11-05T08:30:38.401Z,9.18
2022-11-05T08:33:10.173Z,9.21
2022-11-05T08:35:38.533Z,9.27
2022-11-05T08:38:07.708Z,9.40
2022-11-05T08:40:36.197Z,9.46
2022-11-05T08:43:06.707Z,9.52
2022-11-05T08:45:36.499Z,9.59
2022-11-05T08:48:07.692Z,9.70
2022-11-05T08:50:35.768Z,9.80
2022-11-05T08:53:03.404Z,9.82
2022-11-05T08:55:30.635Z,9.93
2022-11-05T08:58:05.891Z,9.93
2022-11-05T09:00:36.525Z,10.03
2022-11-05T09:03:07.164Z,10.13
2022-11-05T09:05:39.696Z,10.22
2022-11-05T09:08:17.584Z,10.33
2022-11-05T09:10:47.025Z,10.39
2022-11-05T09:13:18.923Z,10.44
2022-11-05T09:15:50.225Z,10.49
2022-11-05T09:18:19.703Z,10.47
2022-11-05T09:20:47.411Z,10.49
2022-11-05T09:23:15.649Z,10.53
2022-11-05T09:25:43.571Z,10.62
2022-11-05T09:28:20.218Z,10.64
2022-11-05T09:30:53.013Z,10.70
2022-11-05T09:33:24.160Z,10.78
2022-11-05T09:35:51.902Z,10.82
2022-11-05T09:38:19.265Z,10.76
2022-11-05T09:41:02.821Z,10.76
2022-11-05T09:43:52.934Z,10.86
2022-11-05T09:46:24.942Z,10.88
2022-11-05T09:49:06.877Z,10.94
2022-11-05T09:51:36.128Z,10.93
2022-11-05T09:54:05.538Z,10.98
2022-11-05T09:56:37.269Z,11.07
2022-11-05T09:59:23.411Z,11.15
2022-11-05T10:01:54.452Z,11.21
2022-11-05T10:04:26.160Z,11.23
2022-11-05T10:07:05.749Z,11.27
2022-11-05T10:09:51.594Z,11.32
2022-11-05T10:12:45.646Z,11.39
2022-11-05T10:15:22.382Z,11.40
2022-11-05T10:18:03.799Z,11.48
2022-11-05T10:20:39.306Z,11.44
2022-11-05T10:23:16.683Z,11.55
2022-11-05T10:26:00.745Z,11.64
2022-11-05T10:28:31.623Z,11.64
2022-11-05T10:31:09.700Z,11.67
2022-11-05T10:34:04.146Z,11.75
2022-11-05T10:36:35.322Z,11.68
2022-11-05T10:39:24.424Z,11.73
2022-11-05T10:42:16.002Z,11.75
2022-11-05T10:45:14.993Z,11.93
2022-11-05T10:48:11.247Z,12.01
2022-11-05T10:50:39.718Z,12.05
2022-11-05T10:53:22.097Z,12.09
2022-11-05T10:55:54.148Z,12.10
2022-11-05T10:58:28.966Z,12.21
2022-11-05T11:00:55.938Z,12.20
2022-11-05T11:04:03.468Z,12.33
2022-11-05T11:06:36.141Z,12.35
2022-11-05T11:09:17.699Z,12.47
2022-11-05T11:11:45.256Z,12.48
2022-11-05T11:14:12.075Z,12.55
2022-11-05T11:16:42.018Z,12.59
2022-11-05T11:19:21.196Z,12.64
2022-11-05T11:22:13.134Z,12.65
2022-11-05T11:24:58.177Z,12.75
2022-11-05T11:27:33.500Z,12.75
2022-11-05T11:30:06.189Z,12.80
2022-11-05T11:32:39.510Z,12.82
2022-11-05T11:35:18.720Z,12.84
2022-11-05T11:37:46.685Z,12.88
2022-11-05T11:40:31.447Z,13.00
2022-11-05T11:43:03.076Z,13.10
2022-11-05T11:45:47.948Z,13.25
2022-11-05T11:48:21.645Z,13.30
2022-11-05T11:50:49.850Z,13.30
2022-11-05T11:53:26.057Z,13.42
2022-11-05T11:55:56.549Z,13.51
2022-11-05T11:58:35.994Z,13.52
2022-11-05T12:01:32.137Z,13.58
2022-11-05T12:04:19.936Z,13.58
2022-11-05T12:07:05.051Z,13.54
2022-11-05T12:09:37.750Z,13.52
2022-11-05T12:12:14.334Z,13.60
2022-11-05T12:15:18.537Z,13.64
2022-11-05T12:18:03.633Z,13.64
2022-11-05T12:21:06.754Z,13.65
2022-11-05T12:24:19.041Z,13.65
2022-11-05T12:26:56.766Z,13.70
2022-11-05T12:29:53.384Z,13.75
2022-11-05T12:33:00.080Z,13.74
2022-11-05T12:35:57.791Z,13.77
2022-11-05T12:38:59.780Z,13.74
2022-11-05T12:41:55.632Z,13.76
2022-11-05T12:45:14.984Z,13.80
2022-11-05T12:48:06.496Z,13.83
2022-11-05T12:50:51.533Z,13.79
2022-11-05T12:53:46.916Z,13.84
2022-11-05T12:56:27.193Z,13.82
2022-11-05T12:59:17.017Z,13.84
2022-11-05T13:01:52.403Z,13.88
2022-11-05T13:04:48.103Z,13.90
2022-11-05T13:07:20.220Z,13.99
2022-11-05T13:10:02.876Z,13.93
2022-11-05T13:12:35.331Z,14.06
2022-11-05T13:15:29.135Z,13.93
2022-11-05T13:18:01.499Z,13.99
2022-11-05T13:20:34.177Z,14.02
2022-11-05T13:23:47.926Z,14.01
2022-11-05T13:26:52.178Z,13.99
2022-11-05T13:29:44.056Z,13.98
2022-11-05T13:32:33.105Z,13.99
2022-11-05T13:35:03.953Z,13.98
2022-11-05T13:37:58.594Z,13.99
2022-11-05T13:41:19.771Z,13.96
2022-11-05T13:43:55.829Z,13.95
2022-11-05T13:47:09.838Z,13.95
2022-11-05T13:50:01.061Z,13.92
2022-11-05T13:53:19.956Z,13.91
2022-11-05T13:56:29.143Z,13.95
2022-11-05T13:59:15.183Z,13.90
2022-11-05T14:01:58.521Z,13.88
2022-11-05T14:04:33.526Z,13.88
2022-11-05T14:07:33.705Z,13.90
2022-11-05T14:10:56.694Z,13.88
2022-11-05T14:13:47.846Z,13.83
2022-11-05T14:16:27.852Z,13.86
2022-11-05T14:19:20.335Z,13.86
2022-11-05T14:21:55.973Z,13.88
2022-11-05T14:24:22.818Z,13.87
2022-11-05T14:27:01.464Z,13.85
2022-11-05T14:29:57.823Z,13.85
2022-11-05T14:32:41.221Z,13.83
2022-11-05T14:35:17.387Z,13.82
2022-11-05T14:37:58.268Z,13.77
2022-11-05T14:40:44.592Z,13.78
2022-11-05T14:43:14.674Z,13.76
2022-11-05T14:46:21.823Z,13.71
2022-11-05T14:48:58.363Z,13.74
2022-11-05T14:51:44.249Z,13.70
2022-11-05T14:54:40.207Z,13.70
2022-11-05T14:57:11.421Z,13.68
2022-11-05T14:59:53.264Z,13.64
2022-11-05T15:02:32.206Z,13.59
2022-11-05T15:05:48.989Z,13.60
2022-11-05T15:08:35.209Z,13.57
2022-11-05T15:11:39.475Z,13.53
2022-11-05T15:14:40.827Z,13.52
2022-11-05T15:17:30.219Z,13.55
2022-11-05T15:20:16.664Z,13.49
2022-11-05T15:22:57.158Z,13.45
2022-11-05T15:25:50.391Z,13.48
2022-11-05T15:28:50.144Z,13.49
2022-11-05T15:31:33.969Z,13.42
2022-11-05T15:34:32.285Z,13.45
2022-11-05T15:37:18.781Z,13.43
2022-11-05T15:39:48.721Z,13.41
2022-11-05T15:42:25.882Z,13.37
2022-11-05T15:44:58.941Z,13.38
2022-11-05T15:47:30.542Z,13.40
2022-11-05T15:50:07.461Z,13.37
2022-11-05T15:52:44.141Z,13.33
2022-11-05T15:55:13.748Z,13.30
2022-11-05T15:58:03.178Z,13.29
2022-11-05T16:00:33.902Z,13.22
2022-11-05T16:03:29.550Z,13.22
2022-11-05T16:06:05.674Z,13.17
2022-11-05T16:08:32.675Z,13.11
2022-11-05T16:11:04.044Z,13.12
2022-11-05T16:13:35.916Z,13.11
2022-11-05T16:16:16.273Z,13.03
2022-11-05T16:18:45.368Z,13.02
2022-11-05T16:21:20.327Z,12.95
2022-11-05T16:23:50.082Z,12.93
2022-11-05T16:29:32.839Z,12.99
2022-11-05T16:32:04.485Z,12.95
2022-11-05T16:34:42.613Z,12.90
2022-11-05T16:37:14.815Z,12.86
2022-11-05T16:39:41.989Z,12.86
2022-11-05T16:42:24.464Z,12.81
2022-11-05T16:44:55.650Z,12.80
2022-11-05T16:47:23.358Z,12.79
2022-11-05T16:49:50.985Z,12.79
2022-11-05T16:52:18.111Z,12.78
2022-11-05T16:54:45.474Z,12.78
2022-11-05T16:57:28.480Z,12.74
2022-11-05T16:59:57.198Z,12.76
2022-11-05T17:02:24.297Z,12.75
2022-11-05T17:04:51.786Z,12.68
2022-11-05T17:07:18.914Z,12.68
2022-11-05T17:09:45.925Z,12.69
2022-11-05T17:12:13.382Z,12.67
2022-11-05T17:14:40.502Z,12.65
2022-11-05T17:17:07.759Z,12.62
2022-11-05T17:19:34.780Z,12.65
2022-11-05T17:22:01.905Z,12.61
2022-11-05T17:24:28.968Z,12.69
2022-11-05T17:26:56.038Z,12.62
2022-11-05T17:29:22.987Z,12.61
2022-11-05T17:31:50.054Z,12.62
2022-11-05T17:34:17.657Z,12.57
2022-11-05T17:36:44.693Z,12.62
2022-11-05T17:39:12.772Z,12.61
2022-11-05T17:41:39.918Z,12.61
2022-11-05T17:44:06.864Z,12.65
2022-11-05T17:46:33.933Z,12.62
2022-11-05T17:49:01.036Z,12.57
2022-11-05T17:51:28.031Z,12.56
2022-11-05T17:53:55.065Z,12.63
2022-11-05T17:56:33.568Z,12.61
2022-11-05T17:59:01.822Z,12.62
2022-11-05T18:01:34.663Z,12.58
2022-11-05T18:04:08.255Z,12.61
2022-11-05T18:06:40.538Z,12.60
2022-11-05T18:09:10.118Z,12.58
2022-11-05T18:11:37.903Z,12.59
2022-11-05T18:14:06.223Z,12.62
2022-11-05T18:16:34.090Z,12.54
2022-11-05T18:19:01.688Z,12.55
2022-11-05T18:21:28.717Z,12.54
2022-11-05T18:23:55.780Z,12.54
2022-11-05T18:26:22.920Z,12.56
2022-11-05T18:28:49.934Z,12.57
2022-11-05T18:31:20.974Z,12.60
2022-11-05T18:33:54.601Z,12.59
2022-11-05T18:36:25.765Z,12.62
2022-11-05T18:38:53.441Z,12.58
2022-11-05T18:41:21.660Z,12.61
2022-11-05T18:43:51.706Z,12.53
2022-11-05T18:46:51.069Z,12.52
2022-11-05T18:49:06.658Z,12.51
2022-11-05T18:51:33.727Z,12.52
2022-11-05T18:54:00.991Z,12.54
2022-11-05T18:56:28.183Z,12.54
2022-11-05T18:59:21.827Z,12.49
2022-11-05T19:01:43.272Z,12.48
2022-11-05T19:04:10.738Z,12.47
2022-11-05T19:06:38.908Z,12.48
2022-11-05T19:09:12.079Z,12.45
2022-11-05T19:11:41.257Z,12.42
2022-11-05T19:14:08.705Z,12.43
2022-11-05T19:16:35.925Z,12.36
2022-11-05T19:19:05.973Z,12.40
2022-11-05T19:21:33.029Z,12.31
2022-11-05T19:24:02.589Z,12.30
2022-11-05T19:26:31.422Z,12.29
2022-11-05T19:29:00.933Z,12.27
2022-11-05T19:31:28.493Z,12.29
2022-11-05T19:33:55.826Z,12.27
2022-11-05T19:36:25.305Z,12.28
2022-11-05T19:39:06.432Z,12.30
2022-11-05T19:41:34.107Z,12.26
2022-11-05T19:44:01.926Z,12.27
2022-11-05T19:46:30.936Z,12.29
2022-11-05T19:49:02.184Z,12.25
2022-11-05T19:51:31.940Z,12.26
2022-11-05T19:54:01.411Z,12.19
2022-11-05T19:56:31.757Z,12.23
2022-11-05T19:59:00.152Z,12.15
2022-11-05T20:01:30.146Z,12.14
2022-11-05T20:03:59.115Z,12.07
2022-11-05T20:06:34.452Z,12.16
2022-11-05T20:09:21.218Z,12.06
2022-11-05T20:11:54.491Z,11.99
2022-11-05T20:14:23.936Z,11.97
2022-11-05T20:16:51.535Z,11.94
2022-11-05T20:19:20.845Z,11.89
2022-11-05T20:21:48.484Z,11.89
2022-11-05T20:24:23.674Z,11.87
2022-11-05T20:26:54.783Z,11.85
2022-11-05T20:29:22.878Z,11.81
2022-11-05T20:31:50.886Z,11.79
2022-11-05T20:34:18.017Z,11.75
2022-11-05T20:36:44.975Z,11.72
2022-11-05T20:39:12.278Z,11.71
2022-11-05T20:41:39.507Z,11.69
2022-11-05T20:44:06.631Z,11.69
2022-11-05T20:46:34.237Z,11.69
2022-11-05T20:49:01.200Z,11.70
2022-11-05T20:51:28.388Z,11.68
2022-11-05T20:54:00.653Z,11.60
2022-11-05T20:56:34.753Z,11.59
2022-11-05T20:59:02.679Z,11.62
2022-11-05T21:01:33.123Z,11.59
2022-11-05T21:04:00.558Z,11.62
2022-11-05T21:06:28.056Z,11.61
2022-11-05T21:08:55.447Z,11.59
2022-11-05T21:11:22.701Z,11.64
2022-11-05T21:13:50.028Z,11.68
2022-11-05T21:16:19.161Z,11.69
2022-11-05T21:18:47.558Z,11.56
2022-11-05T21:21:19.750Z,11.54
2022-11-05T21:23:47.352Z,11.56
2022-11-05T21:26:16.772Z,11.50
2022-11-05T21:28:43.939Z,11.53
2022-11-05T21:31:11.539Z,11.56
2022-11-05T21:33:38.977Z,11.52
2022-11-05T21:36:09.820Z,11.53
2022-11-05T21:38:37.720Z,11.55
2022-11-05T21:41:05.544Z,11.59
2022-11-05T21:43:32.644Z,11.60
2022-11-05T21:46:04.208Z,11.65
2022-11-05T21:48:34.017Z,11.63
2022-11-05T21:51:19.629Z,11.61
2022-11-05T21:54:05.151Z,11.56
2022-11-05T21:56:51.368Z,11.59
2022-11-05T21:59:40.600Z,11.55
2022-11-05T22:02:11.267Z,11.56
2022-11-05T22:04:45.530Z,11.51
2022-11-05T22:07:15.849Z,11.55
2022-11-05T22:09:43.167Z,11.55
2022-11-05T22:12:10.385Z,11.56
2022-11-05T22:14:37.945Z,11.64
2022-11-05T22:17:06.088Z,11.62
2022-11-05T22:19:33.611Z,11.64
2022-11-05T22:22:00.971Z,11.64
2022-11-05T22:24:30.518Z,11.70
2022-11-05T22:27:07.670Z,11.64
2022-11-05T22:29:36.085Z,11.70
2022-11-05T22:32:04.753Z,11.64
2022-11-05T22:34:32.032Z,11.67
2022-11-05T22:36:59.282Z,11.64
2022-11-05T22:39:26.265Z,11.66
2022-11-05T22:41:55.847Z,11.69
2022-11-05T22:44:24.229Z,11.67
2022-11-05T22:46:51.210Z,11.61
2022-11-05T22:49:18.893Z,11.62
2022-11-05T22:51:48.686Z,11.60
2022-11-05T22:54:15.680Z,11.64
2022-11-05T22:56:43.609Z,11.62
2022-11-05T22:59:15.174Z,11.62
2022-11-05T23:01:44.196Z,11.63
2022-11-05T23:04:12.477Z,11.68
2022-11-05T23:06:58.016Z,11.67
2022-11-05T23:09:53.098Z,11.63
2022-11-05T23:12:28.945Z,11.63
2022-11-05T23:14:58.106Z,11.67
2022-11-05T23:17:44.481Z,11.62
2022-11-05T23:20:40.704Z,11.62
2022-11-05T23:23:30.913Z,11.59
2022-11-05T23:26:21.478Z,11.59
2022-11-05T23:28:48.435Z,11.59
2022-11-05T23:31:34.156Z,11.55
2022-11-05T23:34:01.121Z,11.57
2022-11-05T23:36:46.913Z,11.56
2022-11-05T23:39:13.975Z,11.54
2022-11-05T23:41:59.716Z,11.54
2022-11-05T23:44:45.006Z,11.55
2022-11-05T23:47:30.739Z,11.58
2022-11-05T23:49:57.770Z,11.64
2022-11-05T23:52:26.744Z,11.58
2022-11-05T23:54:53.757Z,11.59
2022-11-05T23:57:20.776Z,11.52
2022-11-05T23:59:47.689Z,11.50
